createdAt,value
2022-10-02T00:01:36.933Z,2.22
2022-10-02T00:06:41.819Z,2.50
2022-10-02T00:11:46.935Z,2.30
2022-10-02T00:16:53.281Z,2.50
2022-10-02T00:22:09.303Z,2.30
2022-10-02T00:27:32.315Z,2.40
2022-10-02T00:32:42.656Z,2.78
2022-10-02T00:37:51.051Z,2.28
2022-10-02T00:43:04.624Z,2.40
2022-10-02T00:48:17.745Z,2.00
2022-10-02T00:53:28.163Z,2.45
2022-10-02T00:59:03.826Z,2.42
2022-10-02T01:04:10.657Z,2.00
2022-10-02T01:09:13.390Z,2.13
2022-10-02T01:14:16.164Z,2.10
2022-10-02T01:19:26.514Z,2.35
2022-10-02T01:24:33.658Z,2.17
2022-10-02T01:29:37.713Z,2.08
2022-10-02T01:34:40.751Z,2.42
2022-10-02T01:39:43.648Z,2.30
2022-10-02T01:44:48.668Z,1.95
2022-10-02T01:50:04.516Z,2.33
2022-10-02T01:55:18.435Z,2.00
2022-10-02T02:00:24.479Z,2.38
2022-10-02T02:05:34.171Z,2.20
2022-10-02T02:10:46.127Z,2.30
2022-10-02T02:15:55.798Z,2.22
2022-10-02T02:21:01.525Z,2.25
2022-10-02T02:26:06.810Z,2.00
2022-10-02T02:31:12.903Z,1.80
2022-10-02T02:36:19.730Z,1.90
2022-10-02T02:41:27.143Z,1.70
2022-10-02T02:46:34.465Z,2.10
2022-10-02T02:51:40.273Z,1.80
2022-10-02T02:56:43.792Z,1.92
2022-10-02T03:01:47.979Z,1.90
2022-10-02T03:06:53.182Z,2.08
2022-10-02T03:12:02.470Z,2.00
2022-10-02T03:17:10.876Z,2.35
2022-10-02T03:22:17.270Z,2.17
2022-10-02T03:27:25.397Z,2.08
2022-10-02T03:32:30.407Z,1.98
2022-10-02T03:37:33.460Z,2.40
2022-10-02T03:42:37.084Z,2.22
2022-10-02T03:47:41.134Z,2.03
2022-10-02T03:52:44.994Z,1.77
2022-10-02T03:57:48.706Z,2.10
2022-10-02T04:02:56.690Z,2.03
2022-10-02T04:08:03.346Z,1.90
2022-10-02T04:13:11.433Z,1.90
2022-10-02T04:18:18.753Z,2.10
2022-10-02T04:23:24.047Z,1.85
2022-10-02T04:28:29.809Z,2.03
2022-10-02T04:33:38.284Z,1.95
2022-10-02T04:38:55.655Z,1.73
2022-10-02T04:44:05.579Z,1.92
2022-10-02T04:49:21.941Z,1.80
2022-10-02T04:54:38.658Z,2.20
2022-10-02T04:59:52.955Z,1.63
2022-10-02T05:05:24.796Z,1.70
2022-10-02T05:10:39.602Z,2.05
2022-10-02T05:15:52.303Z,1.70
2022-10-02T05:21:17.389Z,2.00
2022-10-02T05:26:42.768Z,1.80
2022-10-02T05:31:56.966Z,1.90
2022-10-02T05:37:21.894Z,1.75
2022-10-02T05:42:32.422Z,1.73
2022-10-02T05:47:38.305Z,1.80
2022-10-02T05:52:48.527Z,2.15
2022-10-02T05:57:53.554Z,2.20
2022-10-02T06:03:04.447Z,1.75
2022-10-02T06:08:11.547Z,2.10
2022-10-02T06:13:19.681Z,1.67
2022-10-02T06:18:24.887Z,1.95
2022-10-02T06:23:32.389Z,1.77
2022-10-02T06:28:37.326Z,1.90
2022-10-02T06:33:40.158Z,2.00
2022-10-02T06:39:05.689Z,1.73
2022-10-02T06:44:16.910Z,1.85
2022-10-02T06:49:26.314Z,1.90
2022-10-02T06:54:44.239Z,1.73
2022-10-02T06:59:59.728Z,1.83
2022-10-02T07:05:41.341Z,1.80
2022-10-02T07:10:49.040Z,1.80
2022-10-02T07:16:13.896Z,1.90
2022-10-02T07:21:23.149Z,1.80
2022-10-02T07:26:39.102Z,1.98
2022-10-02T07:31:49.332Z,1.90
2022-10-02T07:37:00.607Z,1.70
2022-10-02T07:42:27.899Z,1.70
2022-10-02T07:47:44.260Z,1.60
2022-10-02T07:52:52.830Z,1.70
2022-10-02T07:58:01.583Z,2.03
2022-10-02T08:03:08.601Z,1.70
2022-10-02T08:08:17.513Z,1.70
2022-10-02T08:13:25.102Z,1.60
2022-10-02T08:18:34.546Z,1.52
2022-10-02T08:23:41.919Z,1.85
2022-10-02T08:28:52.131Z,1.80
2022-10-02T08:33:55.484Z,2.15
2022-10-02T08:39:06.263Z,2.20
2022-10-02T08:44:35.502Z,2.25
2022-10-02T08:50:14.560Z,2.30
2022-10-02T08:55:27.072Z,2.08
2022-10-02T09:00:36.635Z,2.28
2022-10-02T09:06:22.847Z,2.33
2022-10-02T09:12:02.508Z,2.40
2022-10-02T09:17:17.589Z,2.50
2022-10-02T09:22:38.809Z,2.97
2022-10-02T09:28:08.688Z,2.40
2022-10-02T09:33:45.267Z,2.40
2022-10-02T09:39:14.878Z,2.50
2022-10-02T09:44:49.069Z,2.20
2022-10-02T09:50:31.662Z,2.47
2022-10-02T09:56:09.090Z,2.50
2022-10-02T10:01:27.160Z,2.30
2022-10-02T10:06:46.803Z,2.40
2022-10-02T10:12:20.752Z,2.22
2022-10-02T10:18:00.447Z,2.58
2022-10-02T10:23:14.767Z,2.55
2022-10-02T10:28:39.387Z,2.50
2022-10-02T10:33:59.800Z,2.50
2022-10-02T10:39:10.068Z,2.75
2022-10-02T10:44:35.595Z,2.53
2022-10-02T10:50:20.422Z,2.58
2022-10-02T10:55:38.721Z,2.55
2022-10-02T11:00:50.507Z,2.40
2022-10-02T11:06:30.043Z,2.60
2022-10-02T11:11:40.355Z,2.45
2022-10-02T11:17:16.427Z,2.45
2022-10-02T11:22:35.198Z,2.35
2022-10-02T11:28:04.938Z,2.40
2022-10-02T11:33:23.762Z,2.60
2022-10-02T11:38:50.010Z,2.55
2022-10-02T11:44:09.264Z,2.45
2022-10-02T11:49:35.998Z,2.40
2022-10-02T11:54:58.594Z,2.10
2022-10-02T12:00:14.057Z,2.50
2022-10-02T12:05:39.206Z,2.22
2022-10-02T12:10:50.745Z,2.30
2022-10-02T12:16:01.093Z,2.30
2022-10-02T12:21:37.263Z,2.28
2022-10-02T12:27:02.631Z,2.10
2022-10-02T12:32:13.912Z,2.22
2022-10-02T12:37:23.995Z,2.40
2022-10-02T12:42:54.043Z,2.00
2022-10-02T12:48:11.784Z,2.33
2022-10-02T12:53:44.837Z,2.03
2022-10-02T12:58:57.187Z,2.17
2022-10-02T13:04:28.725Z,2.10
2022-10-02T13:09:45.605Z,2.30
2022-10-02T13:15:12.082Z,2.63
2022-10-02T13:20:26.235Z,2.50
2022-10-02T13:25:40.194Z,2.65
2022-10-02T13:30:47.998Z,2.45
2022-10-02T13:36:11.369Z,3.22
2022-10-02T13:41:22.906Z,2.90
2022-10-02T13:46:35.745Z,2.72
2022-10-02T13:51:43.457Z,2.83
2022-10-02T13:56:52.288Z,2.90
2022-10-02T14:02:08.013Z,2.92
2022-10-02T14:07:22.359Z,2.50
2022-10-02T14:12:30.328Z,2.55
2022-10-02T14:17:38.705Z,2.60
2022-10-02T14:22:50.128Z,2.80
2022-10-02T14:28:16.949Z,2.75
2022-10-02T14:33:25.646Z,2.60
2022-10-02T14:38:44.546Z,2.95
2022-10-02T14:44:05.693Z,2.80
2022-10-02T14:49:28.712Z,3.10
2022-10-02T14:54:51.695Z,3.00
2022-10-02T15:00:14.750Z,2.75
2022-10-02T15:05:34.386Z,3.05
2022-10-02T15:10:39.578Z,3.05
2022-10-02T15:15:46.356Z,2.80
2022-10-02T15:20:59.493Z,3.10
2022-10-02T15:26:12.552Z,3.13
2022-10-02T15:31:24.190Z,3.08
2022-10-02T15:36:47.099Z,2.78
2022-10-02T15:41:50.823Z,3.08
2022-10-02T15:46:59.674Z,3.10
2022-10-02T15:52:11.593Z,3.10
2022-10-02T15:57:38.071Z,2.80
2022-10-02T16:02:56.562Z,2.80
2022-10-02T16:08:17.072Z,3.20
2022-10-02T16:13:34.248Z,3.10
2022-10-02T16:18:59.369Z,3.30
2022-10-02T16:24:23.404Z,3.45
2022-10-02T16:29:31.281Z,3.00
2022-10-02T16:34:44.279Z,3.63
2022-10-02T16:40:03.383Z,3.17
2022-10-02T16:45:23.784Z,2.88
2022-10-02T16:50:30.588Z,3.13
2022-10-02T16:55:35.616Z,2.85
2022-10-02T17:00:40.682Z,3.00
2022-10-02T17:05:49.704Z,3.03
2022-10-02T17:11:05.621Z,3.10
2022-10-02T17:16:14.573Z,3.42
2022-10-02T17:21:26.759Z,3.40
2022-10-02T17:26:34.797Z,2.85
2022-10-02T17:31:45.560Z,3.20
2022-10-02T17:37:22.382Z,2.97
2022-10-02T17:42:34.437Z,3.28
2022-10-02T17:47:53.812Z,2.97
2022-10-02T17:53:25.729Z,3.17
2022-10-02T17:58:35.509Z,3.33
2022-10-02T18:03:59.915Z,3.25
2022-10-02T18:09:24.107Z,3.10
2022-10-02T18:14:55.462Z,3.10
2022-10-02T18:20:04.714Z,3.10
2022-10-02T18:25:32.067Z,2.90
2022-10-02T18:30:40.707Z,3.10
2022-10-02T18:35:52.196Z,3.20
2022-10-02T18:41:05.710Z,3.05
2022-10-02T18:46:17.987Z,3.17
2022-10-02T18:51:50.452Z,2.90
2022-10-02T18:57:07.442Z,3.08
2022-10-02T19:02:26.339Z,3.08
2022-10-02T19:07:32.157Z,3.22
2022-10-02T19:12:36.313Z,2.88
2022-10-02T19:17:39.639Z,2.80
2022-10-02T19:22:42.522Z,3.22
2022-10-02T19:27:50.925Z,2.80
2022-10-02T19:32:55.472Z,3.10
2022-10-02T19:38:07.954Z,3.10
2022-10-02T19:43:17.090Z,3.22
2022-10-02T19:48:20.003Z,3.35
2022-10-02T19:53:24.610Z,3.00
2022-10-02T19:58:33.785Z,3.00
2022-10-02T20:03:37.824Z,2.97
2022-10-02T20:08:43.766Z,2.85
2022-10-02T20:13:50.446Z,2.92
2022-10-02T20:18:53.485Z,3.17
2022-10-02T20:23:58.069Z,2.78
2022-10-02T20:29:05.518Z,2.97
2022-10-02T20:34:13.834Z,2.90
2022-10-02T20:39:19.587Z,2.83
2022-10-02T20:44:23.643Z,3.00
2022-10-02T20:49:42.206Z,3.03
2022-10-02T20:54:54.079Z,2.75
2022-10-02T21:00:15.278Z,2.72
2022-10-02T21:05:43.546Z,2.92
2022-10-02T21:11:13.255Z,2.90
2022-10-02T21:16:46.490Z,2.92
2022-10-02T21:22:21.231Z,2.95
2022-10-02T21:27:47.781Z,2.83
2022-10-02T21:33:01.967Z,2.63
2022-10-02T21:38:27.352Z,2.90
2022-10-02T21:44:16.326Z,3.15
2022-10-02T21:50:06.763Z,2.67
2022-10-02T21:55:47.776Z,2.90
2022-10-02T22:01:05.011Z,2.55
2022-10-02T22:06:26.972Z,2.75
2022-10-02T22:11:38.878Z,2.97
2022-10-02T22:16:50.861Z,2.80
2022-10-02T22:22:02.694Z,3.05
2022-10-02T22:27:15.068Z,2.70
2022-10-02T22:32:51.868Z,2.88
2022-10-02T22:38:05.220Z,3.22
2022-10-02T22:43:08.693Z,2.70
2022-10-02T22:48:15.419Z,3.30
2022-10-02T22:53:24.188Z,2.90
2022-10-02T22:58:34.248Z,3.10
2022-10-02T23:03:39.819Z,3.20
2022-10-02T23:08:50.676Z,3.10
2022-10-02T23:13:55.866Z,3.00
2022-10-02T23:19:01.646Z,3.05
2022-10-02T23:24:17.488Z,2.70
2022-10-02T23:29:26.577Z,2.97
2022-10-02T23:34:38.257Z,3.00
2022-10-02T23:39:48.034Z,2.70
2022-10-02T23:44:55.765Z,3.00
2022-10-02T23:49:59.941Z,3.40
2022-10-02T23:55:19.274Z,2.72
